Terminal Aerodrome Forecast
Issued by NWS

Home | Current Version | Previous Version | Text Only | Print | Product List | Glossary On
Versions: 1 2 3 4 5 6 7 8 9 10
000
FTUS44 KLZK 271500 AAA
TAFLIT
TAF AMD
KLIT 271546Z 2716/2812 14005KT 2SM BR OVC004
      TEMPO 2716/2718 5SM BR SCT004 OVC012
     FM271800 36006KT 4SM BR BKN012 OVC020
     FM280000 35011KT 4SM -RA BR BKN009
     FM280800 34008KT 4SM BR BKN007 OVC015=

USA.gov is the U.S. government's official web portal to all federal, state and local government web resources and services.